sensor_id;sensor_type;location;lat;lon;timestamp;P1;durP1;ratioP1;P2;durP2;ratioP2
5811;SDS011;2932;52.400;9.558;2022-07-23T00:00:28;7.13;;;4.05;;
5811;SDS011;2932;52.400;9.558;2022-07-23T00:02:53;5.78;;;4.35;;
5811;SDS011;2932;52.400;9.558;2022-07-23T00:05:19;5.47;;;3.70;;
5811;SDS011;2932;52.400;9.558;2022-07-23T00:07:44;5.72;;;3.97;;
5811;SDS011;2932;52.400;9.558;2022-07-23T00:10:10;8.02;;;4.75;;
5811;SDS011;2932;52.400;9.558;2022-07-23T00:12:35;5.43;;;4.57;;
5811;SDS011;2932;52.400;9.558;2022-07-23T00:15:01;6.18;;;4.60;;
5811;SDS011;2932;52.400;9.558;2022-07-23T00:17:28;8.23;;;5.18;;
5811;SDS011;2932;52.400;9.558;2022-07-23T00:19:53;6.25;;;4.65;;
5811;SDS011;2932;52.400;9.558;2022-07-23T00:22:18;10.05;;;4.50;;
5811;SDS011;2932;52.400;9.558;2022-07-23T00:24:44;7.28;;;4.75;;
5811;SDS011;2932;52.400;9.558;2022-07-23T00:27:09;6.43;;;5.20;;
5811;SDS011;2932;52.400;9.558;2022-07-23T00:29:34;12.68;;;5.95;;
5811;SDS011;2932;52.400;9.558;2022-07-23T00:32:00;9.93;;;5.20;;
5811;SDS011;2932;52.400;9.558;2022-07-23T00:34:25;6.95;;;4.93;;
5811;SDS011;2932;52.400;9.558;2022-07-23T00:36:51;9.63;;;5.20;;
5811;SDS011;2932;52.400;9.558;2022-07-23T00:39:18;7.55;;;5.07;;
5811;SDS011;2932;52.400;9.558;2022-07-23T00:41:44;8.98;;;4.93;;
5811;SDS011;2932;52.400;9.558;2022-07-23T00:44:23;9.13;;;5.38;;
5811;SDS011;2932;52.400;9.558;2022-07-23T00:46:51;10.75;;;5.00;;
5811;SDS011;2932;52.400;9.558;2022-07-23T00:49:19;6.85;;;5.10;;
5811;SDS011;2932;52.400;9.558;2022-07-23T00:51:46;6.35;;;4.97;;
5811;SDS011;2932;52.400;9.558;2022-07-23T00:54:12;6.22;;;5.00;;
5811;SDS011;2932;52.400;9.558;2022-07-23T00:56:38;6.70;;;4.95;;
5811;SDS011;2932;52.400;9.558;2022-07-23T00:59:05;9.05;;;4.90;;
5811;SDS011;2932;52.400;9.558;2022-07-23T01:01:31;6.15;;;4.82;;
5811;SDS011;2932;52.400;9.558;2022-07-23T01:03:56;8.20;;;5.80;;
5811;SDS011;2932;52.400;9.558;2022-07-23T01:06:22;7.22;;;5.15;;
5811;SDS011;2932;52.400;9.558;2022-07-23T01:08:47;7.90;;;5.25;;
5811;SDS011;2932;52.400;9.558;2022-07-23T01:11:13;7.88;;;5.47;;
5811;SDS011;2932;52.400;9.558;2022-07-23T01:13:45;6.95;;;5.38;;
5811;SDS011;2932;52.400;9.558;2022-07-23T01:16:10;7.40;;;5.38;;
5811;SDS011;2932;52.400;9.558;2022-07-23T01:18:36;8.90;;;5.53;;
5811;SDS011;2932;52.400;9.558;2022-07-23T01:21:01;9.93;;;5.53;;
5811;SDS011;2932;52.400;9.558;2022-07-23T01:23:27;6.82;;;4.90;;
5811;SDS011;2932;52.400;9.558;2022-07-23T01:25:53;7.10;;;4.95;;
5811;SDS011;2932;52.400;9.558;2022-07-23T01:28:18;7.10;;;4.85;;
5811;SDS011;2932;52.400;9.558;2022-07-23T01:30:44;10.00;;;5.30;;
5811;SDS011;2932;52.400;9.558;2022-07-23T01:33:10;8.25;;;5.47;;
5811;SDS011;2932;52.400;9.558;2022-07-23T01:35:35;6.82;;;5.00;;
5811;SDS011;2932;52.400;9.558;2022-07-23T01:38:01;5.55;;;5.05;;
5811;SDS011;2932;52.400;9.558;2022-07-23T01:40:26;6.80;;;5.75;;
5811;SDS011;2932;52.400;9.558;2022-07-23T01:42:51;8.32;;;5.43;;
5811;SDS011;2932;52.400;9.558;2022-07-23T01:45:17;8.30;;;5.43;;
5811;SDS011;2932;52.400;9.558;2022-07-23T01:47:42;7.15;;;5.20;;
5811;SDS011;2932;52.400;9.558;2022-07-23T01:50:08;8.60;;;5.50;;
5811;SDS011;2932;52.400;9.558;2022-07-23T01:52:34;7.55;;;5.70;;
5811;SDS011;2932;52.400;9.558;2022-07-23T01:54:59;10.17;;;6.00;;
5811;SDS011;2932;52.400;9.558;2022-07-23T01:57:24;7.70;;;6.05;;
5811;SDS011;2932;52.400;9.558;2022-07-23T01:59:50;8.75;;;5.28;;
5811;SDS011;2932;52.400;9.558;2022-07-23T02:02:15;5.75;;;5.18;;
5811;SDS011;2932;52.400;9.558;2022-07-23T02:04:40;9.02;;;5.72;;
5811;SDS011;2932;52.400;9.558;2022-07-23T02:07:06;8.07;;;5.93;;
5811;SDS011;2932;52.400;9.558;2022-07-23T02:09:31;7.32;;;5.80;;
5811;SDS011;2932;52.400;9.558;2022-07-23T02:11:57;7.43;;;5.80;;
5811;SDS011;2932;52.400;9.558;2022-07-23T02:14:23;7.43;;;6.55;;
5811;SDS011;2932;52.400;9.558;2022-07-23T02:16:49;9.65;;;5.97;;
5811;SDS011;2932;52.400;9.558;2022-07-23T02:19:15;11.13;;;6.05;;
5811;SDS011;2932;52.400;9.558;2022-07-23T02:21:40;6.80;;;5.97;;
5811;SDS011;2932;52.400;9.558;2022-07-23T02:24:06;7.63;;;5.93;;
5811;SDS011;2932;52.400;9.558;2022-07-23T02:26:31;8.57;;;6.50;;
5811;SDS011;2932;52.400;9.558;2022-07-23T02:29:03;9.57;;;6.38;;
5811;SDS011;2932;52.400;9.558;2022-07-23T02:31:30;7.70;;;5.97;;
5811;SDS011;2932;52.400;9.558;2022-07-23T02:33:56;8.00;;;6.57;;
5811;SDS011;2932;52.400;9.558;2022-07-23T02:36:21;7.68;;;6.05;;
5811;SDS011;2932;52.400;9.558;2022-07-23T02:38:47;8.05;;;6.47;;
5811;SDS011;2932;52.400;9.558;2022-07-23T02:41:12;8.82;;;6.70;;
5811;SDS011;2932;52.400;9.558;2022-07-23T02:43:38;9.70;;;6.20;;
5811;SDS011;2932;52.400;9.558;2022-07-23T02:46:03;6.70;;;6.00;;
5811;SDS011;2932;52.400;9.558;2022-07-23T02:48:29;8.57;;;6.70;;
5811;SDS011;2932;52.400;9.558;2022-07-23T02:50:55;7.83;;;6.33;;
5811;SDS011;2932;52.400;9.558;2022-07-23T02:53:21;6.53;;;5.63;;
5811;SDS011;2932;52.400;9.558;2022-07-23T02:55:47;8.85;;;6.18;;
5811;SDS011;2932;52.400;9.558;2022-07-23T02:58:13;7.95;;;6.20;;
5811;SDS011;2932;52.400;9.558;2022-07-23T03:00:38;6.27;;;5.60;;
5811;SDS011;2932;52.400;9.558;2022-07-23T03:03:04;6.20;;;5.60;;
5811;SDS011;2932;52.400;9.558;2022-07-23T03:05:29;6.20;;;5.60;;
5811;SDS011;2932;52.400;9.558;2022-07-23T03:07:54;6.97;;;5.25;;
5811;SDS011;2932;52.400;9.558;2022-07-23T03:10:20;8.80;;;5.82;;
5811;SDS011;2932;52.400;9.558;2022-07-23T03:12:45;7.13;;;5.35;;
5811;SDS011;2932;52.400;9.558;2022-07-23T03:15:11;8.13;;;5.57;;
5811;SDS011;2932;52.400;9.558;2022-07-23T03:17:36;11.45;;;6.28;;
5811;SDS011;2932;52.400;9.558;2022-07-23T03:20:01;7.57;;;6.03;;
5811;SDS011;2932;52.400;9.558;2022-07-23T03:22:27;7.53;;;5.80;;
5811;SDS011;2932;52.400;9.558;2022-07-23T03:24:53;8.98;;;5.78;;
5811;SDS011;2932;52.400;9.558;2022-07-23T03:27:21;6.95;;;5.45;;
5811;SDS011;2932;52.400;9.558;2022-07-23T03:29:49;10.65;;;5.95;;
5811;SDS011;2932;52.400;9.558;2022-07-23T03:32:15;7.82;;;5.63;;
5811;SDS011;2932;52.400;9.558;2022-07-23T03:34:40;7.35;;;5.63;;
5811;SDS011;2932;52.400;9.558;2022-07-23T03:37:05;7.88;;;6.03;;
5811;SDS011;2932;52.400;9.558;2022-07-23T03:39:31;7.10;;;5.93;;
5811;SDS011;2932;52.400;9.558;2022-07-23T03:41:56;9.90;;;5.43;;
5811;SDS011;2932;52.400;9.558;2022-07-23T03:44:22;8.02;;;6.05;;
5811;SDS011;2932;52.400;9.558;2022-07-23T03:46:47;8.38;;;6.18;;
5811;SDS011;2932;52.400;9.558;2022-07-23T03:49:13;10.77;;;6.30;;
5811;SDS011;2932;52.400;9.558;2022-07-23T03:51:38;7.68;;;5.88;;
5811;SDS011;2932;52.400;9.558;2022-07-23T03:54:04;11.57;;;6.22;;
5811;SDS011;2932;52.400;9.558;2022-07-23T03:56:29;9.35;;;6.72;;
5811;SDS011;2932;52.400;9.558;2022-07-23T03:58:55;7.90;;;6.27;;
5811;SDS011;2932;52.400;9.558;2022-07-23T04:01:21;7.33;;;6.37;;
5811;SDS011;2932;52.400;9.558;2022-07-23T04:03:46;8.50;;;6.22;;
5811;SDS011;2932;52.400;9.558;2022-07-23T04:06:12;7.60;;;6.80;;
5811;SDS011;2932;52.400;9.558;2022-07-23T04:08:38;9.20;;;6.40;;
5811;SDS011;2932;52.400;9.558;2022-07-23T04:11:03;7.38;;;6.57;;
5811;SDS011;2932;52.400;9.558;2022-07-23T04:13:29;9.95;;;6.78;;
5811;SDS011;2932;52.400;9.558;2022-07-23T04:15:55;9.17;;;6.50;;
5811;SDS011;2932;52.400;9.558;2022-07-23T04:18:20;8.98;;;6.78;;
5811;SDS011;2932;52.400;9.558;2022-07-23T04:20:48;7.43;;;6.00;;
5811;SDS011;2932;52.400;9.558;2022-07-23T04:23:15;7.72;;;6.63;;
5811;SDS011;2932;52.400;9.558;2022-07-23T04:25:40;10.32;;;6.60;;
5811;SDS011;2932;52.400;9.558;2022-07-23T04:28:06;7.53;;;6.72;;
5811;SDS011;2932;52.400;9.558;2022-07-23T04:30:31;10.50;;;7.10;;
5811;SDS011;2932;52.400;9.558;2022-07-23T04:32:57;6.75;;;6.05;;
5811;SDS011;2932;52.400;9.558;2022-07-23T04:35:22;7.57;;;5.97;;
5811;SDS011;2932;52.400;9.558;2022-07-23T04:37:47;10.15;;;6.50;;
5811;SDS011;2932;52.400;9.558;2022-07-23T04:40:13;7.10;;;6.40;;
5811;SDS011;2932;52.400;9.558;2022-07-23T04:42:38;8.27;;;6.78;;
5811;SDS011;2932;52.400;9.558;2022-07-23T04:45:04;8.98;;;6.50;;
5811;SDS011;2932;52.400;9.558;2022-07-23T04:47:30;8.40;;;6.25;;
5811;SDS011;2932;52.400;9.558;2022-07-23T04:49:56;9.63;;;6.80;;
5811;SDS011;2932;52.400;9.558;2022-07-23T04:52:22;7.43;;;6.30;;
5811;SDS011;2932;52.400;9.558;2022-07-23T04:54:48;9.20;;;6.82;;
5811;SDS011;2932;52.400;9.558;2022-07-23T04:57:13;8.35;;;6.78;;
5811;SDS011;2932;52.400;9.558;2022-07-23T04:59:38;8.70;;;6.93;;
5811;SDS011;2932;52.400;9.558;2022-07-23T05:02:04;9.05;;;6.15;;
5811;SDS011;2932;52.400;9.558;2022-07-23T05:04:29;10.63;;;5.97;;
5811;SDS011;2932;52.400;9.558;2022-07-23T05:06:56;9.32;;;7.00;;
5811;SDS011;2932;52.400;9.558;2022-07-23T05:09:21;6.97;;;6.28;;
5811;SDS011;2932;52.400;9.558;2022-07-23T05:11:47;7.30;;;6.57;;
5811;SDS011;2932;52.400;9.558;2022-07-23T05:14:12;8.07;;;6.07;;
5811;SDS011;2932;52.400;9.558;2022-07-23T05:16:38;8.70;;;5.65;;
5811;SDS011;2932;52.400;9.558;2022-07-23T05:19:03;10.40;;;6.60;;
5811;SDS011;2932;52.400;9.558;2022-07-23T05:21:29;9.40;;;6.55;;
5811;SDS011;2932;52.400;9.558;2022-07-23T05:23:54;6.40;;;5.78;;
5811;SDS011;2932;52.400;9.558;2022-07-23T05:26:23;11.18;;;7.32;;
5811;SDS011;2932;52.400;9.558;2022-07-23T05:28:49;8.27;;;6.63;;
5811;SDS011;2932;52.400;9.558;2022-07-23T05:31:14;9.23;;;6.75;;
5811;SDS011;2932;52.400;9.558;2022-07-23T05:33:40;9.05;;;6.70;;
5811;SDS011;2932;52.400;9.558;2022-07-23T05:36:05;9.82;;;7.18;;
5811;SDS011;2932;52.400;9.558;2022-07-23T05:38:31;9.40;;;7.35;;
5811;SDS011;2932;52.400;9.558;2022-07-23T05:40:57;10.82;;;7.97;;
5811;SDS011;2932;52.400;9.558;2022-07-23T05:43:22;9.45;;;6.70;;
5811;SDS011;2932;52.400;9.558;2022-07-23T05:45:48;9.65;;;7.38;;
5811;SDS011;2932;52.400;9.558;2022-07-23T05:48:13;11.13;;;8.68;;
5811;SDS011;2932;52.400;9.558;2022-07-23T05:50:39;13.30;;;7.70;;
5811;SDS011;2932;52.400;9.558;2022-07-23T05:53:04;11.18;;;8.20;;
5811;SDS011;2932;52.400;9.558;2022-07-23T05:55:29;9.30;;;8.05;;
5811;SDS011;2932;52.400;9.558;2022-07-23T05:57:56;9.68;;;8.55;;
5811;SDS011;2932;52.400;9.558;2022-07-23T06:00:22;12.55;;;8.60;;
5811;SDS011;2932;52.400;9.558;2022-07-23T06:02:47;13.18;;;8.95;;
5811;SDS011;2932;52.400;9.558;2022-07-23T06:05:13;9.77;;;8.20;;
5811;SDS011;2932;52.400;9.558;2022-07-23T06:07:38;10.25;;;8.35;;
5811;SDS011;2932;52.400;9.558;2022-07-23T06:10:04;11.45;;;8.82;;
5811;SDS011;2932;52.400;9.558;2022-07-23T06:12:30;9.18;;;8.25;;
5811;SDS011;2932;52.400;9.558;2022-07-23T06:14:56;9.20;;;7.85;;
5811;SDS011;2932;52.400;9.558;2022-07-23T06:17:21;8.10;;;7.00;;
5811;SDS011;2932;52.400;9.558;2022-07-23T06:19:47;8.85;;;7.10;;
5811;SDS011;2932;52.400;9.558;2022-07-23T06:22:13;8.25;;;6.43;;
5811;SDS011;2932;52.400;9.558;2022-07-23T06:24:39;10.48;;;6.50;;
5811;SDS011;2932;52.400;9.558;2022-07-23T06:27:04;10.40;;;7.50;;
5811;SDS011;2932;52.400;9.558;2022-07-23T06:29:30;8.07;;;6.63;;
5811;SDS011;2932;52.400;9.558;2022-07-23T06:31:55;7.90;;;6.72;;
5811;SDS011;2932;52.400;9.558;2022-07-23T06:34:20;5.78;;;5.18;;
5811;SDS011;2932;52.400;9.558;2022-07-23T06:36:46;7.82;;;6.05;;
5811;SDS011;2932;52.400;9.558;2022-07-23T06:39:11;8.95;;;7.10;;
5811;SDS011;2932;52.400;9.558;2022-07-23T06:41:37;8.48;;;6.97;;
5811;SDS011;2932;52.400;9.558;2022-07-23T06:44:02;12.75;;;7.95;;
5811;SDS011;2932;52.400;9.558;2022-07-23T06:46:28;7.88;;;6.88;;
5811;SDS011;2932;52.400;9.558;2022-07-23T06:48:53;9.10;;;7.07;;
5811;SDS011;2932;52.400;9.558;2022-07-23T06:51:19;11.02;;;6.30;;
5811;SDS011;2932;52.400;9.558;2022-07-23T06:53:44;9.77;;;6.45;;
5811;SDS011;2932;52.400;9.558;2022-07-23T06:56:10;10.13;;;6.95;;
5811;SDS011;2932;52.400;9.558;2022-07-23T06:58:35;8.57;;;6.28;;
5811;SDS011;2932;52.400;9.558;2022-07-23T07:01:01;10.32;;;5.78;;
5811;SDS011;2932;52.400;9.558;2022-07-23T07:03:26;6.72;;;6.07;;
5811;SDS011;2932;52.400;9.558;2022-07-23T07:05:51;9.15;;;5.18;;
5811;SDS011;2932;52.400;9.558;2022-07-23T07:08:18;9.63;;;5.75;;
5811;SDS011;2932;52.400;9.558;2022-07-23T07:10:43;5.72;;;5.22;;
5811;SDS011;2932;52.400;9.558;2022-07-23T07:13:09;8.07;;;4.78;;
5811;SDS011;2932;52.400;9.558;2022-07-23T07:15:34;6.72;;;4.78;;
5811;SDS011;2932;52.400;9.558;2022-07-23T07:17:59;7.38;;;5.00;;
5811;SDS011;2932;52.400;9.558;2022-07-23T07:20:25;6.40;;;4.15;;
5811;SDS011;2932;52.400;9.558;2022-07-23T07:22:50;4.93;;;3.30;;
5811;SDS011;2932;52.400;9.558;2022-07-23T07:25:16;7.22;;;3.90;;
5811;SDS011;2932;52.400;9.558;2022-07-23T07:27:41;4.28;;;2.72;;
5811;SDS011;2932;52.400;9.558;2022-07-23T07:30:09;4.72;;;2.97;;
5811;SDS011;2932;52.400;9.558;2022-07-23T07:32:35;4.82;;;3.00;;
5811;SDS011;2932;52.400;9.558;2022-07-23T07:35:02;6.30;;;3.15;;
5811;SDS011;2932;52.400;9.558;2022-07-23T07:37:28;4.55;;;3.45;;
5811;SDS011;2932;52.400;9.558;2022-07-23T07:39:54;4.47;;;3.10;;
5811;SDS011;2932;52.400;9.558;2022-07-23T07:42:20;3.80;;;3.00;;
5811;SDS011;2932;52.400;9.558;2022-07-23T07:44:45;3.72;;;3.28;;
5811;SDS011;2932;52.400;9.558;2022-07-23T07:47:10;4.40;;;3.35;;
5811;SDS011;2932;52.400;9.558;2022-07-23T07:49:36;5.05;;;3.22;;
5811;SDS011;2932;52.400;9.558;2022-07-23T07:52:02;4.18;;;2.75;;
5811;SDS011;2932;52.400;9.558;2022-07-23T07:54:28;7.82;;;3.17;;
5811;SDS011;2932;52.400;9.558;2022-07-23T07:56:53;5.65;;;3.15;;
5811;SDS011;2932;52.400;9.558;2022-07-23T07:59:18;3.63;;;2.88;;
5811;SDS011;2932;52.400;9.558;2022-07-23T08:01:44;3.47;;;2.17;;
5811;SDS011;2932;52.400;9.558;2022-07-23T08:04:09;3.10;;;1.95;;
5811;SDS011;2932;52.400;9.558;2022-07-23T08:06:34;2.35;;;2.00;;
5811;SDS011;2932;52.400;9.558;2022-07-23T08:09:00;2.58;;;1.58;;
5811;SDS011;2932;52.400;9.558;2022-07-23T08:11:25;3.60;;;1.85;;
5811;SDS011;2932;52.400;9.558;2022-07-23T08:13:50;3.00;;;1.60;;
5811;SDS011;2932;52.400;9.558;2022-07-23T08:16:16;3.05;;;1.65;;
5811;SDS011;2932;52.400;9.558;2022-07-23T08:18:41;2.97;;;1.42;;
5811;SDS011;2932;52.400;9.558;2022-07-23T08:21:06;1.40;;;1.10;;
5811;SDS011;2932;52.400;9.558;2022-07-23T08:23:32;2.20;;;1.80;;
5811;SDS011;2932;52.400;9.558;2022-07-23T08:25:57;3.70;;;1.50;;
5811;SDS011;2932;52.400;9.558;2022-07-23T08:28:24;1.95;;;1.65;;
5811;SDS011;2932;52.400;9.558;2022-07-23T08:30:50;5.03;;;1.85;;
5811;SDS011;2932;52.400;9.558;2022-07-23T08:33:16;3.35;;;1.52;;
5811;SDS011;2932;52.400;9.558;2022-07-23T08:35:44;1.73;;;1.60;;
5811;SDS011;2932;52.400;9.558;2022-07-23T08:38:12;1.95;;;1.33;;
5811;SDS011;2932;52.400;9.558;2022-07-23T08:40:44;3.97;;;1.27;;
5811;SDS011;2932;52.400;9.558;2022-07-23T08:43:15;2.15;;;1.20;;
5811;SDS011;2932;52.400;9.558;2022-07-23T08:45:50;1.95;;;1.00;;
5811;SDS011;2932;52.400;9.558;2022-07-23T08:48:17;1.98;;;1.20;;
5811;SDS011;2932;52.400;9.558;2022-07-23T08:50:48;2.22;;;1.85;;
5811;SDS011;2932;52.400;9.558;2022-07-23T08:53:16;3.05;;;1.52;;
5811;SDS011;2932;52.400;9.558;2022-07-23T08:55:43;2.47;;;1.77;;
5811;SDS011;2932;52.400;9.558;2022-07-23T08:58:10;2.70;;;1.50;;
5811;SDS011;2932;52.400;9.558;2022-07-23T09:00:36;2.15;;;1.83;;
5811;SDS011;2932;52.400;9.558;2022-07-23T09:03:01;3.72;;;2.00;;
5811;SDS011;2932;52.400;9.558;2022-07-23T09:05:27;2.20;;;1.40;;
5811;SDS011;2932;52.400;9.558;2022-07-23T09:13:29;2.95;;;1.80;;
5811;SDS011;2932;52.400;9.558;2022-07-23T09:15:55;2.72;;;1.40;;
5811;SDS011;2932;52.400;9.558;2022-07-23T09:21:13;2.50;;;1.33;;
5811;SDS011;2932;52.400;9.558;2022-07-23T09:23:43;2.38;;;1.42;;
5811;SDS011;2932;52.400;9.558;2022-07-23T09:26:22;1.88;;;1.13;;
5811;SDS011;2932;52.400;9.558;2022-07-23T09:28:55;5.50;;;2.13;;
5811;SDS011;2932;52.400;9.558;2022-07-23T09:34:14;5.43;;;2.38;;
5811;SDS011;2932;52.400;9.558;2022-07-23T09:36:54;2.72;;;1.75;;
5811;SDS011;2932;52.400;9.558;2022-07-23T09:39:25;2.33;;;1.40;;
5811;SDS011;2932;52.400;9.558;2022-07-23T09:42:13;2.15;;;1.20;;
5811;SDS011;2932;52.400;9.558;2022-07-23T09:44:42;2.60;;;1.50;;
5811;SDS011;2932;52.400;9.558;2022-07-23T09:47:09;2.38;;;1.02;;
5811;SDS011;2932;52.400;9.558;2022-07-23T09:49:34;3.70;;;1.10;;
5811;SDS011;2932;52.400;9.558;2022-07-23T09:52:00;2.05;;;1.80;;
5811;SDS011;2932;52.400;9.558;2022-07-23T09:56:56;3.72;;;1.33;;
5811;SDS011;2932;52.400;9.558;2022-07-23T09:59:33;2.00;;;0.98;;
5811;SDS011;2932;52.400;9.558;2022-07-23T10:02:01;1.35;;;1.10;;
5811;SDS011;2932;52.400;9.558;2022-07-23T10:04:27;2.00;;;1.10;;
5811;SDS011;2932;52.400;9.558;2022-07-23T10:06:55;2.05;;;1.08;;
5811;SDS011;2932;52.400;9.558;2022-07-23T10:09:24;1.48;;;1.10;;
5811;SDS011;2932;52.400;9.558;2022-07-23T10:11:59;2.03;;;1.30;;
5811;SDS011;2932;52.400;9.558;2022-07-23T10:14:32;3.63;;;1.40;;
5811;SDS011;2932;52.400;9.558;2022-07-23T10:17:00;2.90;;;1.20;;
5811;SDS011;2932;52.400;9.558;2022-07-23T10:19:27;2.17;;;1.00;;
5811;SDS011;2932;52.400;9.558;2022-07-23T10:21:54;2.17;;;1.33;;
5811;SDS011;2932;52.400;9.558;2022-07-23T10:27:09;3.10;;;1.30;;
5811;SDS011;2932;52.400;9.558;2022-07-23T10:32:37;3.15;;;1.98;;
5811;SDS011;2932;52.400;9.558;2022-07-23T10:37:39;2.75;;;1.40;;
5811;SDS011;2932;52.400;9.558;2022-07-23T10:40:14;1.45;;;1.33;;
5811;SDS011;2932;52.400;9.558;2022-07-23T10:42:44;2.35;;;1.38;;
5811;SDS011;2932;52.400;9.558;2022-07-23T10:45:24;4.40;;;1.40;;
5811;SDS011;2932;52.400;9.558;2022-07-23T10:47:50;1.70;;;0.90;;
5811;SDS011;2932;52.400;9.558;2022-07-23T10:50:26;1.92;;;1.40;;
5811;SDS011;2932;52.400;9.558;2022-07-23T10:53:14;1.60;;;1.25;;
5811;SDS011;2932;52.400;9.558;2022-07-23T10:55:43;3.40;;;1.20;;
5811;SDS011;2932;52.400;9.558;2022-07-23T10:58:08;3.53;;;1.40;;
5811;SDS011;2932;52.400;9.558;2022-07-23T11:00:36;4.30;;;1.00;;
5811;SDS011;2932;52.400;9.558;2022-07-23T11:03:03;1.67;;;0.82;;
5811;SDS011;2932;52.400;9.558;2022-07-23T11:05:41;2.03;;;1.00;;
5811;SDS011;2932;52.400;9.558;2022-07-23T11:10:36;3.88;;;1.23;;
5811;SDS011;2932;52.400;9.558;2022-07-23T11:27:06;1.40;;;0.80;;
5811;SDS011;2932;52.400;9.558;2022-07-23T11:31:52;2.40;;;0.77;;
5811;SDS011;2932;52.400;9.558;2022-07-23T11:37:00;0.93;;;0.73;;
5811;SDS011;2932;52.400;9.558;2022-07-23T11:39:28;3.92;;;0.80;;
5811;SDS011;2932;52.400;9.558;2022-07-23T11:41:55;2.33;;;0.68;;
5811;SDS011;2932;52.400;9.558;2022-07-23T11:44:28;1.10;;;0.70;;
5811;SDS011;2932;52.400;9.558;2022-07-23T11:47:00;3.05;;;0.90;;
5811;SDS011;2932;52.400;9.558;2022-07-23T11:49:30;2.33;;;0.90;;
5811;SDS011;2932;52.400;9.558;2022-07-23T11:52:03;2.03;;;0.88;;
5811;SDS011;2932;52.400;9.558;2022-07-23T11:54:30;1.75;;;0.60;;
5811;SDS011;2932;52.400;9.558;2022-07-23T11:56:56;2.33;;;1.27;;
5811;SDS011;2932;52.400;9.558;2022-07-23T11:59:23;3.70;;;0.70;;
5811;SDS011;2932;52.400;9.558;2022-07-23T12:04:23;2.92;;;0.77;;
5811;SDS011;2932;52.400;9.558;2022-07-23T12:06:49;2.10;;;0.80;;
5811;SDS011;2932;52.400;9.558;2022-07-23T12:09:14;1.58;;;0.60;;
5811;SDS011;2932;52.400;9.558;2022-07-23T12:11:55;1.58;;;0.68;;
5811;SDS011;2932;52.400;9.558;2022-07-23T12:14:22;1.30;;;0.60;;
5811;SDS011;2932;52.400;9.558;2022-07-23T12:16:47;0.52;;;0.52;;
5811;SDS011;2932;52.400;9.558;2022-07-23T12:19:32;0.85;;;0.52;;
5811;SDS011;2932;52.400;9.558;2022-07-23T12:21:57;1.05;;;0.47;;
5811;SDS011;2932;52.400;9.558;2022-07-23T12:24:23;1.23;;;0.60;;
5811;SDS011;2932;52.400;9.558;2022-07-23T12:27:07;1.58;;;0.70;;
5811;SDS011;2932;52.400;9.558;2022-07-23T12:29:34;0.88;;;0.47;;
5811;SDS011;2932;52.400;9.558;2022-07-23T12:32:01;1.42;;;0.50;;
5811;SDS011;2932;52.400;9.558;2022-07-23T12:34:26;1.10;;;0.63;;
5811;SDS011;2932;52.400;9.558;2022-07-23T12:36:52;1.85;;;0.80;;
5811;SDS011;2932;52.400;9.558;2022-07-23T12:39:30;1.85;;;0.68;;
5811;SDS011;2932;52.400;9.558;2022-07-23T12:41:56;1.10;;;0.60;;
5811;SDS011;2932;52.400;9.558;2022-07-23T12:44:21;0.88;;;0.60;;
5811;SDS011;2932;52.400;9.558;2022-07-23T12:46:51;3.63;;;0.70;;
5811;SDS011;2932;52.400;9.558;2022-07-23T12:49:26;3.10;;;1.02;;
5811;SDS011;2932;52.400;9.558;2022-07-23T12:51:53;1.40;;;0.68;;
5811;SDS011;2932;52.400;9.558;2022-07-23T12:54:19;2.25;;;0.73;;
5811;SDS011;2932;52.400;9.558;2022-07-23T12:56:52;2.55;;;0.80;;
5811;SDS011;2932;52.400;9.558;2022-07-23T12:59:18;0.45;;;0.45;;
5811;SDS011;2932;52.400;9.558;2022-07-23T13:01:45;1.60;;;0.57;;
5811;SDS011;2932;52.400;9.558;2022-07-23T13:04:20;1.23;;;0.63;;
5811;SDS011;2932;52.400;9.558;2022-07-23T13:09:16;1.35;;;0.73;;
5811;SDS011;2932;52.400;9.558;2022-07-23T13:11:46;0.55;;;0.47;;
5811;SDS011;2932;52.400;9.558;2022-07-23T13:14:13;0.85;;;0.50;;
5811;SDS011;2932;52.400;9.558;2022-07-23T13:16:39;2.55;;;0.40;;
5811;SDS011;2932;52.400;9.558;2022-07-23T13:19:06;2.58;;;0.63;;
5811;SDS011;2932;52.400;9.558;2022-07-23T13:21:32;2.63;;;0.60;;
5811;SDS011;2932;52.400;9.558;2022-07-23T13:23:58;1.08;;;0.60;;
5811;SDS011;2932;52.400;9.558;2022-07-23T13:26:24;2.22;;;0.65;;
5811;SDS011;2932;52.400;9.558;2022-07-23T13:28:50;1.45;;;0.50;;
5811;SDS011;2932;52.400;9.558;2022-07-23T13:31:18;2.63;;;0.52;;
5811;SDS011;2932;52.400;9.558;2022-07-23T13:33:43;1.98;;;0.68;;
5811;SDS011;2932;52.400;9.558;2022-07-23T13:36:08;1.05;;;0.60;;
5811;SDS011;2932;52.400;9.558;2022-07-23T13:38:34;1.63;;;0.60;;
5811;SDS011;2932;52.400;9.558;2022-07-23T13:41:00;1.55;;;0.60;;
5811;SDS011;2932;52.400;9.558;2022-07-23T13:43:25;3.20;;;0.52;;
5811;SDS011;2932;52.400;9.558;2022-07-23T13:45:51;0.70;;;0.63;;
5811;SDS011;2932;52.400;9.558;2022-07-23T13:48:17;1.40;;;0.50;;
5811;SDS011;2932;52.400;9.558;2022-07-23T13:50:44;1.77;;;0.65;;
5811;SDS011;2932;52.400;9.558;2022-07-23T13:53:15;0.63;;;0.50;;
5811;SDS011;2932;52.400;9.558;2022-07-23T13:55:43;3.80;;;0.85;;
5811;SDS011;2932;52.400;9.558;2022-07-23T13:58:09;1.67;;;0.45;;
5811;SDS011;2932;52.400;9.558;2022-07-23T14:00:37;1.25;;;0.50;;
5811;SDS011;2932;52.400;9.558;2022-07-23T14:03:04;2.50;;;0.60;;
5811;SDS011;2932;52.400;9.558;2022-07-23T14:05:30;0.60;;;0.50;;
5811;SDS011;2932;52.400;9.558;2022-07-23T14:07:56;1.48;;;0.60;;
5811;SDS011;2932;52.400;9.558;2022-07-23T14:10:22;0.95;;;0.50;;
5811;SDS011;2932;52.400;9.558;2022-07-23T14:12:48;1.92;;;0.60;;
5811;SDS011;2932;52.400;9.558;2022-07-23T14:15:16;3.45;;;0.60;;
5811;SDS011;2932;52.400;9.558;2022-07-23T14:17:42;0.47;;;0.47;;
5811;SDS011;2932;52.400;9.558;2022-07-23T14:20:09;1.23;;;0.40;;
5811;SDS011;2932;52.400;9.558;2022-07-23T14:22:36;0.85;;;0.50;;
5811;SDS011;2932;52.400;9.558;2022-07-23T14:25:02;1.13;;;0.60;;
5811;SDS011;2932;52.400;9.558;2022-07-23T14:27:28;0.50;;;0.50;;
5811;SDS011;2932;52.400;9.558;2022-07-23T14:29:54;3.45;;;0.70;;
5811;SDS011;2932;52.400;9.558;2022-07-23T14:32:20;0.40;;;0.40;;
5811;SDS011;2932;52.400;9.558;2022-07-23T14:34:46;0.50;;;0.40;;
5811;SDS011;2932;52.400;9.558;2022-07-23T14:37:12;0.82;;;0.70;;
5811;SDS011;2932;52.400;9.558;2022-07-23T14:39:38;1.25;;;0.45;;
5811;SDS011;2932;52.400;9.558;2022-07-23T14:42:04;1.15;;;0.50;;
5811;SDS011;2932;52.400;9.558;2022-07-23T14:44:30;0.85;;;0.50;;
5811;SDS011;2932;52.400;9.558;2022-07-23T14:46:56;0.52;;;0.50;;
5811;SDS011;2932;52.400;9.558;2022-07-23T14:49:21;0.60;;;0.43;;
5811;SDS011;2932;52.400;9.558;2022-07-23T14:51:47;0.63;;;0.50;;
5811;SDS011;2932;52.400;9.558;2022-07-23T14:54:12;0.73;;;0.50;;
5811;SDS011;2932;52.400;9.558;2022-07-23T14:56:39;2.92;;;0.50;;
5811;SDS011;2932;52.400;9.558;2022-07-23T14:59:05;1.45;;;0.40;;
5811;SDS011;2932;52.400;9.558;2022-07-23T15:01:30;1.23;;;0.50;;
5811;SDS011;2932;52.400;9.558;2022-07-23T15:03:56;1.40;;;0.50;;
5811;SDS011;2932;52.400;9.558;2022-07-23T15:06:21;0.65;;;0.47;;
5811;SDS011;2932;52.400;9.558;2022-07-23T15:08:47;0.63;;;0.40;;
5811;SDS011;2932;52.400;9.558;2022-07-23T15:11:12;1.48;;;0.45;;
5811;SDS011;2932;52.400;9.558;2022-07-23T15:13:38;1.85;;;0.50;;
5811;SDS011;2932;52.400;9.558;2022-07-23T15:16:04;0.50;;;0.50;;
5811;SDS011;2932;52.400;9.558;2022-07-23T15:18:31;0.80;;;0.47;;
5811;SDS011;2932;52.400;9.558;2022-07-23T15:20:56;3.47;;;0.50;;
5811;SDS011;2932;52.400;9.558;2022-07-23T15:23:22;0.40;;;0.40;;
5811;SDS011;2932;52.400;9.558;2022-07-23T15:25:47;0.65;;;0.40;;
5811;SDS011;2932;52.400;9.558;2022-07-23T15:28:13;2.85;;;0.60;;
5811;SDS011;2932;52.400;9.558;2022-07-23T15:30:38;1.23;;;0.93;;
5811;SDS011;2932;52.400;9.558;2022-07-23T15:33:04;6.13;;;3.60;;
5811;SDS011;2932;52.400;9.558;2022-07-23T15:35:30;6.15;;;2.80;;
5811;SDS011;2932;52.400;9.558;2022-07-23T15:37:56;1.45;;;1.10;;
5811;SDS011;2932;52.400;9.558;2022-07-23T15:40:21;1.75;;;0.80;;
5811;SDS011;2932;52.400;9.558;2022-07-23T15:42:47;0.65;;;0.57;;
5811;SDS011;2932;52.400;9.558;2022-07-23T15:45:12;1.17;;;0.50;;
5811;SDS011;2932;52.400;9.558;2022-07-23T15:47:38;0.90;;;0.43;;
5811;SDS011;2932;52.400;9.558;2022-07-23T15:50:05;2.17;;;0.60;;
5811;SDS011;2932;52.400;9.558;2022-07-23T15:52:31;0.43;;;0.43;;
5811;SDS011;2932;52.400;9.558;2022-07-23T15:54:56;1.13;;;0.55;;
5811;SDS011;2932;52.400;9.558;2022-07-23T15:57:22;1.63;;;0.50;;
5811;SDS011;2932;52.400;9.558;2022-07-23T15:59:47;1.13;;;0.77;;